aviador You're here:

SCDA Decoded Metar

IQUIQUE in CHILE
Report Time2017-12-16 16:00:00
UTC Time2017-12-16 16:48:58
Flight Rules vfr VFR
Wind220° at 15 kt
W.Decomp.*RWY 19: 12.6 kt HW 8.2 kt RCW
W.Rank220° ranks 5
Current wind is above 220° avg. (10.2)
Visibility9999 m
Phenomena:N/A
Clouds:N/A
Expected CloudBase > 3,600 ft AGL from Temp-Dew spread
CeilingNone
Temp22°C (ISA +7)
Dew Point13°C (57% RH)
AAT17.6°C
QNH1012 hPa
Density Alt1,260 ft
Elevation171 ft
Report Wrong Elevation
Raw Report
SCDA 161600Z 22015KT CAVOK 22/13 Q1012=

Extra information for SCDA:More info

Metar Taf Metar & Taf Last 4 Metars F.Rules Stats Wind Profile Meteogram Temp Stats Airport Information Weather charts Add Link Nearby VenuesMetar ALERT Operation Metar Decoded Social comments